Terminal Aerodrome Forecast
Issued by NWS

Home | Current Version | Previous Version | Graphics & Text | Print | Product List | Glossary On
Versions: 1 2 3 4 5 6 7 8 9 10 11 12 13 14 15 16 17
438
FTUS43 KICT 290946 AAA
TAFRSL
TAF AMD
KRSL 290946Z 2910/3006 05005KT P6SM VCSH SCT100 BKN250
     FM291500 10007KT P6SM BKN100
     FM291800 14007KT P6SM VCTS BKN050CB
     FM292000 15008KT P6SM BKN070=

USA.gov is the U.S. government's official web portal to all federal, state and local government web resources and services.